createdAt,value
2018-06-16T00:00:00.952Z,0.00
2018-06-16T00:01:00.985Z,0.00
2018-06-16T00:02:01.022Z,0.00
2018-06-16T00:03:01.054Z,0.00
2018-06-16T00:04:01.094Z,0.00
2018-06-16T00:05:01.126Z,0.00
2018-06-16T00:06:01.160Z,0.00
2018-06-16T00:07:01.255Z,0.00
2018-06-16T00:08:01.229Z,0.00
2018-06-16T00:09:01.263Z,0.00
2018-06-16T00:10:01.299Z,0.00
2018-06-16T00:11:01.332Z,0.00
2018-06-16T00:12:01.367Z,0.00
2018-06-16T00:13:01.403Z,0.00
2018-06-16T00:14:01.440Z,0.00
2018-06-16T00:15:01.472Z,0.00
2018-06-16T00:16:01.508Z,0.00
2018-06-16T00:17:01.542Z,0.00
2018-06-16T00:18:01.578Z,0.00
2018-06-16T00:19:01.611Z,0.00
2018-06-16T00:20:01.646Z,0.00
2018-06-16T00:21:01.681Z,0.00
2018-06-16T00:22:01.715Z,0.00
2018-06-16T00:23:01.750Z,0.00
2018-06-16T00:24:01.784Z,0.00
2018-06-16T00:25:01.818Z,0.00
2018-06-16T00:26:01.855Z,0.00
2018-06-16T00:27:01.888Z,0.00
2018-06-16T00:28:01.923Z,0.00
2018-06-16T00:29:01.959Z,0.00
2018-06-16T00:30:01.993Z,0.00
2018-06-16T00:31:02.028Z,0.00
2018-06-16T00:32:02.063Z,0.00
2018-06-16T00:33:02.097Z,0.00
2018-06-16T00:34:02.131Z,0.00
2018-06-16T00:35:02.166Z,0.00
2018-06-16T00:36:02.201Z,0.00
2018-06-16T00:37:02.236Z,0.00
2018-06-16T00:38:02.270Z,0.00
2018-06-16T00:39:02.304Z,0.00
2018-06-16T00:40:02.340Z,0.00
2018-06-16T00:41:02.375Z,0.00
2018-06-16T00:42:02.409Z,0.00
2018-06-16T00:43:02.445Z,0.00
2018-06-16T00:44:02.477Z,0.00
2018-06-16T00:45:02.513Z,0.00
2018-06-16T00:46:02.547Z,0.00
2018-06-16T00:47:02.582Z,0.00
2018-06-16T00:48:02.616Z,0.00
2018-06-16T00:49:02.652Z,0.00
2018-06-16T00:50:02.690Z,0.00
2018-06-16T00:51:02.720Z,0.00
2018-06-16T00:52:02.755Z,0.00
2018-06-16T00:53:02.840Z,0.00
2018-06-16T00:54:02.826Z,0.00
2018-06-16T00:55:02.858Z,0.00
2018-06-16T00:56:02.894Z,0.00
2018-06-16T00:57:02.928Z,0.00
2018-06-16T00:58:02.964Z,0.00
2018-06-16T00:59:02.997Z,0.00
2018-06-16T01:00:03.031Z,0.00
2018-06-16T01:01:03.065Z,0.00
2018-06-16T01:02:03.101Z,0.00
2018-06-16T01:03:03.135Z,0.00
2018-06-16T01:04:03.169Z,0.00
2018-06-16T01:05:03.205Z,0.00
2018-06-16T01:06:03.239Z,0.00
2018-06-16T01:07:03.272Z,0.00
2018-06-16T01:08:03.308Z,0.00
2018-06-16T01:09:03.342Z,0.00
2018-06-16T01:10:03.395Z,0.00
2018-06-16T01:11:03.409Z,0.00
2018-06-16T01:12:03.464Z,0.00
2018-06-16T01:13:03.699Z,0.00
2018-06-16T01:14:03.514Z,0.00
2018-06-16T01:15:03.548Z,0.00
2018-06-16T01:16:03.582Z,0.00
2018-06-16T01:17:03.616Z,0.00
2018-06-16T01:18:03.652Z,0.00
2018-06-16T01:19:03.686Z,0.00
2018-06-16T01:20:03.720Z,0.00
2018-06-16T01:21:03.754Z,0.00
2018-06-16T01:22:03.789Z,0.00
2018-06-16T01:23:03.822Z,0.00
2018-06-16T01:24:03.856Z,0.00
2018-06-16T01:25:03.891Z,0.00
2018-06-16T01:26:03.927Z,0.00
2018-06-16T01:27:03.962Z,0.00
2018-06-16T01:28:03.994Z,0.00
2018-06-16T01:29:04.028Z,0.00
2018-06-16T01:30:04.123Z,0.00
2018-06-16T01:31:04.096Z,0.00
2018-06-16T01:33:04.166Z,0.00
2018-06-16T01:34:04.199Z,0.00
2018-06-16T01:35:04.235Z,0.00
2018-06-16T01:36:04.595Z,0.00
2018-06-16T01:37:04.628Z,0.00
2018-06-16T01:38:04.355Z,0.00
2018-06-16T01:40:04.404Z,0.00
2018-06-16T01:41:04.440Z,0.00
2018-06-16T01:42:04.472Z,0.00
2018-06-16T01:43:04.508Z,0.00
2018-06-16T01:44:04.543Z,0.00
2018-06-16T01:45:04.576Z,0.00
2018-06-16T01:46:04.610Z,0.00
2018-06-16T01:47:04.642Z,0.00
2018-06-16T01:48:04.677Z,0.00
2018-06-16T01:49:04.712Z,0.00
2018-06-16T01:50:04.747Z,0.00
2018-06-16T01:51:04.779Z,0.00
2018-06-16T01:52:04.814Z,0.00
2018-06-16T01:53:04.851Z,0.00
2018-06-16T01:54:04.882Z,0.00
2018-06-16T01:55:04.919Z,0.00
2018-06-16T01:56:04.950Z,0.00
2018-06-16T01:57:04.985Z,0.00
2018-06-16T01:58:05.018Z,0.00
2018-06-16T01:59:05.050Z,0.00
2018-06-16T02:00:05.088Z,0.00
2018-06-16T02:01:05.121Z,0.00
2018-06-16T02:02:05.155Z,0.00
2018-06-16T02:03:05.188Z,0.00
2018-06-16T02:04:05.221Z,0.00
2018-06-16T02:05:05.255Z,0.00
2018-06-16T02:06:05.291Z,0.00
2018-06-16T02:07:05.324Z,0.00
2018-06-16T02:08:05.358Z,0.00
2018-06-16T02:09:05.391Z,0.00
2018-06-16T02:10:05.425Z,0.00
2018-06-16T02:11:05.459Z,0.00
2018-06-16T02:12:05.493Z,0.00
2018-06-16T02:13:05.527Z,0.00
2018-06-16T02:14:05.562Z,0.00
2018-06-16T02:15:05.595Z,0.00
2018-06-16T02:16:05.627Z,0.00
2018-06-16T02:17:05.662Z,0.00
2018-06-16T02:18:05.696Z,0.00
2018-06-16T02:19:05.728Z,0.00
2018-06-16T02:20:05.764Z,0.00
2018-06-16T02:21:05.796Z,0.00
2018-06-16T02:22:05.830Z,0.00
2018-06-16T02:23:05.865Z,0.00
2018-06-16T02:24:05.897Z,0.00
2018-06-16T02:25:05.932Z,0.00
2018-06-16T02:26:05.966Z,0.00
2018-06-16T02:27:05.998Z,0.00
2018-06-16T02:28:06.033Z,0.00
2018-06-16T02:29:06.067Z,0.00
2018-06-16T02:30:06.102Z,0.00
2018-06-16T02:31:06.138Z,0.00
2018-06-16T02:32:06.167Z,0.00
2018-06-16T02:33:06.202Z,0.00
2018-06-16T02:34:06.235Z,0.00
2018-06-16T02:35:06.267Z,0.00
2018-06-16T02:36:06.303Z,0.00
2018-06-16T02:37:06.336Z,0.00
2018-06-16T02:38:06.370Z,0.00
2018-06-16T02:39:06.403Z,0.00
2018-06-16T02:40:06.436Z,0.00
2018-06-16T02:41:06.473Z,0.00
2018-06-16T02:42:06.506Z,0.00
2018-06-16T02:43:06.538Z,0.00
2018-06-16T02:44:06.604Z,0.00
2018-06-16T02:45:06.608Z,0.00
2018-06-16T02:46:06.638Z,0.00
2018-06-16T02:47:06.670Z,0.00
2018-06-16T02:48:06.704Z,4.00
2018-06-16T02:49:06.739Z,4.00
2018-06-16T02:50:06.791Z,4.00
2018-06-16T02:51:06.806Z,0.00
2018-06-16T02:52:06.836Z,4.00
2018-06-16T02:53:06.874Z,4.00
2018-06-16T02:54:06.906Z,4.00
2018-06-16T02:55:06.937Z,4.00
2018-06-16T02:56:06.971Z,4.00
2018-06-16T02:57:08.420Z,8.00
2018-06-16T02:58:07.039Z,8.00
2018-06-16T02:59:07.072Z,8.00
2018-06-16T03:00:07.105Z,8.00
2018-06-16T03:01:07.139Z,12.00
2018-06-16T03:02:07.172Z,12.00
2018-06-16T03:03:07.205Z,16.00
2018-06-16T03:04:07.238Z,16.00
2018-06-16T03:05:07.272Z,20.00
2018-06-16T03:06:07.306Z,20.00
2018-06-16T03:07:07.339Z,28.00
2018-06-16T03:08:07.372Z,32.00
2018-06-16T03:09:07.406Z,36.00
2018-06-16T03:10:07.440Z,40.00
2018-06-16T03:11:07.471Z,48.00
2018-06-16T03:12:07.508Z,52.00
2018-06-16T03:13:07.540Z,60.00
2018-06-16T03:14:07.572Z,68.00
2018-06-16T03:15:07.608Z,76.00
2018-06-16T03:16:07.640Z,84.00
2018-06-16T03:17:07.680Z,96.00
2018-06-16T03:18:07.707Z,108.00
2018-06-16T03:19:07.739Z,120.00
2018-06-16T03:20:07.773Z,132.00
2018-06-16T03:21:07.807Z,144.00
2018-06-16T03:22:07.839Z,164.00
2018-06-16T03:23:07.874Z,180.00
2018-06-16T03:24:07.907Z,196.00
2018-06-16T03:25:07.942Z,216.00
2018-06-16T03:26:07.972Z,232.00
2018-06-16T03:27:08.009Z,256.00
2018-06-16T03:28:08.039Z,276.00
2018-06-16T03:29:08.072Z,300.00
2018-06-16T03:30:08.107Z,324.00
2018-06-16T03:31:08.140Z,348.00
2018-06-16T03:32:08.173Z,376.00
2018-06-16T03:33:08.206Z,400.00
2018-06-16T03:34:08.241Z,432.00
2018-06-16T03:35:08.272Z,460.00
2018-06-16T03:36:08.307Z,488.00
2018-06-16T03:37:08.341Z,520.00
2018-06-16T03:38:08.374Z,548.00
2018-06-16T03:39:08.405Z,580.00
2018-06-16T03:40:08.439Z,612.00
2018-06-16T03:41:08.473Z,644.00
2018-06-16T03:42:08.505Z,680.00
2018-06-16T03:43:08.539Z,716.00
2018-06-16T03:44:08.573Z,752.00
2018-06-16T03:45:08.606Z,788.00
2018-06-16T03:46:08.640Z,820.00
2018-06-16T03:47:08.673Z,856.00
2018-06-16T03:48:08.706Z,896.00
2018-06-16T03:49:08.739Z,936.00
2018-06-16T03:50:08.772Z,976.00
2018-06-16T03:51:08.805Z,1012.00
2018-06-16T03:52:08.839Z,1048.00
2018-06-16T03:53:08.871Z,1084.00
2018-06-16T03:54:08.906Z,1112.00
2018-06-16T03:55:08.937Z,1148.00
2018-06-16T03:56:08.972Z,1180.00
2018-06-16T03:57:09.006Z,1220.00
2018-06-16T03:58:09.043Z,1256.00
2018-06-16T03:59:09.072Z,1288.00
2018-06-16T04:00:09.105Z,1324.00
2018-06-16T04:01:09.139Z,1360.00
2018-06-16T04:02:09.173Z,1392.00
2018-06-16T04:03:09.205Z,1432.00
2018-06-16T04:04:09.239Z,1476.00
2018-06-16T04:05:09.273Z,1520.00
2018-06-16T04:06:09.305Z,1556.00
2018-06-16T04:07:09.339Z,1600.00
2018-06-16T04:08:09.391Z,1644.00
2018-06-16T04:09:09.404Z,1692.00
2018-06-16T04:10:09.440Z,1740.00
2018-06-16T04:11:09.472Z,1796.00
2018-06-16T04:12:09.505Z,1868.00
2018-06-16T04:13:09.539Z,1940.00
2018-06-16T04:14:09.572Z,2012.00
2018-06-16T04:15:09.606Z,2068.00
2018-06-16T04:16:09.639Z,2120.00
2018-06-16T04:17:09.673Z,2172.00
2018-06-16T04:18:09.708Z,2228.00
2018-06-16T04:19:09.740Z,2284.00
2018-06-16T04:20:09.774Z,2344.00
2018-06-16T04:21:09.805Z,2416.00
2018-06-16T04:22:09.840Z,2484.00
2018-06-16T04:23:10.198Z,2556.00
2018-06-16T04:24:09.907Z,2624.00
2018-06-16T04:25:09.940Z,2692.00
2018-06-16T04:26:09.975Z,2748.00
2018-06-16T04:27:10.007Z,2808.00
2018-06-16T04:28:10.066Z,2864.00
2018-06-16T04:29:10.075Z,2920.00
2018-06-16T04:30:10.108Z,2984.00
2018-06-16T04:31:10.142Z,3060.00
2018-06-16T04:32:10.178Z,3132.00
2018-06-16T04:33:10.216Z,3196.00
2018-06-16T04:34:10.243Z,3272.00
2018-06-16T04:35:10.276Z,3340.00
2018-06-16T04:36:10.310Z,3400.00
2018-06-16T04:37:10.348Z,3464.00
2018-06-16T04:38:10.706Z,3536.00
2018-06-16T04:39:10.412Z,3600.00
2018-06-16T04:40:10.446Z,3660.00
2018-06-16T04:41:10.482Z,3704.00
2018-06-16T04:42:10.516Z,3712.00
2018-06-16T04:43:10.548Z,3756.00
2018-06-16T04:44:10.586Z,3860.00
2018-06-16T04:45:10.617Z,3940.00
2018-06-16T04:46:10.655Z,4024.00
2018-06-16T04:47:10.686Z,4116.00
2018-06-16T04:48:10.720Z,4192.00
2018-06-16T04:49:10.754Z,4212.00
2018-06-16T04:50:10.789Z,4244.00
2018-06-16T04:51:10.822Z,4316.00
2018-06-16T04:52:10.856Z,4304.00
2018-06-16T04:53:10.892Z,4284.00
2018-06-16T04:54:10.926Z,4300.00
2018-06-16T04:55:10.959Z,4396.00
2018-06-16T04:56:10.994Z,4436.00
2018-06-16T04:57:11.029Z,4476.00
2018-06-16T04:58:11.067Z,4528.00
2018-06-16T04:59:11.096Z,4528.00
2018-06-16T05:00:11.133Z,4492.00
2018-06-16T05:01:11.168Z,4432.00
2018-06-16T05:02:11.203Z,4440.00
2018-06-16T05:03:11.236Z,4388.00
2018-06-16T05:04:11.271Z,4408.00
2018-06-16T05:05:11.306Z,4436.00
2018-06-16T05:06:11.343Z,4468.00
2018-06-16T05:07:11.375Z,4504.00
2018-06-16T05:08:11.410Z,4568.00
2018-06-16T05:09:11.446Z,4628.00
2018-06-16T05:10:11.480Z,4692.00
2018-06-16T05:11:11.515Z,4760.00
2018-06-16T05:12:11.550Z,4836.00
2018-06-16T05:13:11.586Z,4888.00
2018-06-16T05:14:11.620Z,4924.00
2018-06-16T05:15:11.655Z,4964.00
2018-06-16T05:16:11.709Z,5024.00
2018-06-16T05:17:11.725Z,5104.00
2018-06-16T05:18:11.762Z,5192.00
2018-06-16T05:19:11.796Z,5268.00
2018-06-16T05:20:11.830Z,5356.00
2018-06-16T05:21:11.867Z,5436.00
2018-06-16T05:22:11.903Z,5492.00
2018-06-16T05:23:11.938Z,5540.00
2018-06-16T05:24:11.987Z,5560.00
2018-06-16T05:25:12.009Z,5588.00
2018-06-16T05:26:12.045Z,5616.00
2018-06-16T05:29:12.171Z,5836.00
2018-06-16T05:31:12.221Z,5984.00
2018-06-16T05:32:12.258Z,6044.00
2018-06-16T05:33:12.292Z,6100.00
2018-06-16T05:34:12.329Z,6144.00
2018-06-16T05:35:12.362Z,6208.00
2018-06-16T05:36:12.399Z,6288.00
2018-06-16T05:37:12.435Z,6384.00
2018-06-16T05:38:12.471Z,6500.00
2018-06-16T05:39:12.506Z,6620.00
2018-06-16T05:40:12.543Z,6768.00
2018-06-16T05:41:12.579Z,6840.00
2018-06-16T05:42:12.615Z,6904.00
2018-06-16T05:43:12.650Z,6924.00
2018-06-16T05:44:12.687Z,6916.00
2018-06-16T05:45:12.722Z,6912.00
2018-06-16T05:46:12.758Z,6908.00
2018-06-16T05:47:12.794Z,6916.00
2018-06-16T05:48:12.838Z,6956.00
2018-06-16T05:49:12.865Z,7020.00
2018-06-16T05:50:12.903Z,7096.00
2018-06-16T05:51:12.937Z,7196.00
2018-06-16T05:52:12.974Z,7304.00
2018-06-16T05:53:13.013Z,7420.00
2018-06-16T05:54:13.048Z,7528.00
2018-06-16T05:55:13.082Z,7604.00
2018-06-16T05:56:13.119Z,7676.00
2018-06-16T05:57:13.156Z,7756.00
2018-06-16T05:58:13.196Z,7828.00
2018-06-16T05:59:13.228Z,7924.00
2018-06-16T06:00:13.265Z,8032.00
2018-06-16T06:01:13.303Z,8152.00
2018-06-16T06:02:13.338Z,8300.00
2018-06-16T06:03:13.374Z,8464.00
2018-06-16T06:04:13.411Z,8700.00
2018-06-16T06:05:13.447Z,8880.00
2018-06-16T06:06:13.484Z,8968.00
2018-06-16T06:07:13.522Z,9200.00
2018-06-16T06:08:13.558Z,9324.00
2018-06-16T06:09:13.595Z,9436.00
2018-06-16T06:10:13.672Z,9512.00
2018-06-16T06:11:13.667Z,9624.00
2018-06-16T06:12:13.704Z,9656.00
2018-06-16T06:13:13.741Z,9700.00
2018-06-16T06:14:13.780Z,9776.00
2018-06-16T06:15:13.815Z,9860.00
2018-06-16T06:16:13.853Z,9952.00
2018-06-16T06:17:13.891Z,10076.00
2018-06-16T06:18:13.928Z,10276.00
2018-06-16T06:19:13.968Z,10504.00
2018-06-16T06:20:14.020Z,10716.00
2018-06-16T06:21:14.037Z,10900.00
2018-06-16T06:22:14.077Z,11048.00
2018-06-16T06:23:14.112Z,11160.00
2018-06-16T06:24:14.150Z,11208.00
2018-06-16T06:25:14.409Z,11180.00
2018-06-16T06:26:14.245Z,11120.00
2018-06-16T06:27:14.683Z,11056.00
2018-06-16T06:28:14.301Z,11012.00
2018-06-16T06:29:14.337Z,11008.00
2018-06-16T06:30:14.393Z,11036.00
2018-06-16T06:31:14.413Z,11112.00
2018-06-16T06:32:14.451Z,11228.00
2018-06-16T06:33:14.487Z,11364.00
2018-06-16T06:34:14.548Z,11548.00
2018-06-16T06:36:14.822Z,11976.00
2018-06-16T06:37:14.701Z,12172.00
2018-06-16T06:38:14.679Z,12352.00
2018-06-16T06:39:14.718Z,12464.00
2018-06-16T06:40:14.755Z,12552.00
2018-06-16T06:41:14.793Z,12644.00
2018-06-16T06:42:14.832Z,12752.00
2018-06-16T06:43:14.868Z,12852.00
2018-06-16T06:44:14.906Z,12976.00
2018-06-16T06:45:14.944Z,13084.00
2018-06-16T06:46:14.984Z,13156.00
2018-06-16T06:47:15.021Z,13132.00
2018-06-16T06:48:15.280Z,13188.00
2018-06-16T06:49:15.099Z,13284.00
2018-06-16T06:50:15.138Z,13428.00
2018-06-16T06:51:15.176Z,13552.00
2018-06-16T06:52:15.215Z,13624.00
2018-06-16T06:53:15.253Z,13704.00
2018-06-16T06:54:15.293Z,13776.00
2018-06-16T06:55:15.331Z,13792.00
2018-06-16T06:56:15.370Z,13792.00
2018-06-16T06:57:15.410Z,13848.00
2018-06-16T06:58:15.448Z,14004.00
2018-06-16T06:59:15.489Z,14244.00
2018-06-16T07:00:15.526Z,14536.00
2018-06-16T07:01:15.566Z,14856.00
2018-06-16T07:02:15.606Z,14912.00
2018-06-16T07:03:15.644Z,14952.00
2018-06-16T07:04:15.683Z,14992.00
2018-06-16T07:05:15.726Z,15056.00
2018-06-16T07:06:15.763Z,15172.00
2018-06-16T07:07:15.801Z,15348.00
2018-06-16T07:08:15.841Z,15508.00
2018-06-16T07:09:15.881Z,15548.00
2018-06-16T07:10:15.921Z,15516.00
2018-06-16T07:11:15.960Z,15376.00
2018-06-16T07:12:16.000Z,15208.00
2018-06-16T07:13:16.043Z,15084.00
2018-06-16T07:14:16.080Z,15092.00
2018-06-16T07:15:16.119Z,15320.00
2018-06-16T07:16:16.158Z,15600.00
2018-06-16T07:17:16.198Z,15884.00
2018-06-16T07:18:16.239Z,16256.00
2018-06-16T07:19:16.279Z,16416.00
2018-06-16T07:20:16.723Z,16480.00
2018-06-16T07:21:16.361Z,16512.00
2018-06-16T07:22:16.398Z,16576.00
2018-06-16T07:23:16.437Z,16640.00
2018-06-16T07:24:16.478Z,16736.00
2018-06-16T07:25:16.519Z,16864.00
2018-06-16T07:26:16.562Z,17024.00
2018-06-16T07:27:16.603Z,17152.00
2018-06-16T07:28:16.637Z,17248.00
2018-06-16T07:29:16.740Z,17280.00
2018-06-16T07:30:16.719Z,17344.00
2018-06-16T07:31:16.757Z,17440.00
2018-06-16T07:32:16.799Z,17536.00
2018-06-16T07:33:16.838Z,17728.00
2018-06-16T07:34:16.880Z,17856.00
2018-06-16T07:35:16.917Z,17888.00
2018-06-16T07:36:17.003Z,17920.00
2018-06-16T07:37:16.999Z,17920.00
2018-06-16T07:38:17.039Z,17760.00
2018-06-16T07:39:17.078Z,17632.00
2018-06-16T07:40:17.118Z,17472.00
2018-06-16T07:41:17.159Z,17440.00
2018-06-16T07:42:17.198Z,17440.00
2018-06-16T07:43:17.240Z,17664.00
2018-06-16T07:44:17.280Z,18336.00
2018-06-16T07:45:17.320Z,18848.00
2018-06-16T07:46:17.360Z,19456.00
2018-06-16T07:47:17.400Z,19136.00
2018-06-16T07:48:17.440Z,19424.00
2018-06-16T07:49:17.481Z,19744.00
2018-06-16T07:50:17.524Z,19872.00
2018-06-16T07:51:17.560Z,20288.00
2018-06-16T07:52:17.603Z,20704.00
2018-06-16T07:53:17.641Z,20928.00
2018-06-16T07:54:17.682Z,20896.00
2018-06-16T07:55:17.721Z,20800.00
2018-06-16T07:56:17.761Z,20384.00
2018-06-16T07:57:17.804Z,20128.00
2018-06-16T07:58:17.843Z,19872.00
2018-06-16T07:59:17.882Z,19808.00
2018-06-16T08:01:17.965Z,19936.00
2018-06-16T08:02:18.006Z,20064.00
2018-06-16T08:03:18.047Z,20192.00
2018-06-16T08:04:18.106Z,20288.00
2018-06-16T08:05:18.146Z,20256.00
2018-06-16T08:06:18.169Z,20256.00
2018-06-16T08:07:18.209Z,20224.00
2018-06-16T08:08:18.249Z,20224.00
2018-06-16T08:09:18.514Z,20320.00
2018-06-16T08:10:19.063Z,20416.00
2018-06-16T08:11:18.372Z,20480.00
2018-06-16T08:12:18.631Z,20512.00
2018-06-16T08:13:18.469Z,20416.00
2018-06-16T08:14:19.405Z,20288.00
2018-06-16T08:15:18.555Z,20128.00
2018-06-16T08:17:18.617Z,20000.00
2018-06-16T08:18:18.665Z,20064.00
2018-06-16T08:19:18.701Z,20320.00
2018-06-16T08:20:18.942Z,20608.00
2018-06-16T08:21:18.781Z,20512.00
2018-06-16T08:22:18.821Z,20480.00
2018-06-16T08:23:18.863Z,20480.00
2018-06-16T08:24:18.902Z,20416.00
2018-06-16T08:25:18.945Z,20384.00
2018-06-16T08:26:18.986Z,20800.00
2018-06-16T08:27:19.026Z,20064.00
2018-06-16T08:28:19.069Z,19200.00
2018-06-16T08:29:19.108Z,18688.00
2018-06-16T08:30:19.155Z,18720.00
2018-06-16T08:31:19.191Z,17824.00
2018-06-16T08:32:19.232Z,17408.00
2018-06-16T08:33:19.273Z,16832.00
2018-06-16T08:34:19.316Z,16372.00
2018-06-16T08:35:19.358Z,15556.00
2018-06-16T08:36:19.398Z,15280.00
2018-06-16T08:37:19.440Z,14488.00
2018-06-16T08:38:19.483Z,14308.00
2018-06-16T08:39:19.521Z,14400.00
2018-06-16T08:40:19.563Z,14420.00
2018-06-16T08:41:19.609Z,14460.00
2018-06-16T08:42:19.650Z,14496.00
2018-06-16T08:43:19.757Z,14556.00
2018-06-16T08:44:19.730Z,14068.00
2018-06-16T08:45:19.771Z,13928.00
2018-06-16T08:46:19.812Z,13756.00
2018-06-16T08:47:19.855Z,13308.00
2018-06-16T08:48:19.893Z,13688.00
2018-06-16T08:49:19.934Z,13256.00
2018-06-16T08:50:19.977Z,13216.00
2018-06-16T08:51:20.018Z,13296.00
2018-06-16T08:52:20.059Z,13360.00
2018-06-16T08:53:20.100Z,13180.00
2018-06-16T08:54:20.141Z,13536.00
2018-06-16T08:55:20.222Z,13308.00
2018-06-16T08:56:20.223Z,13856.00
2018-06-16T08:57:20.264Z,14012.00
2018-06-16T08:58:20.306Z,14140.00
2018-06-16T08:59:20.345Z,14504.00
2018-06-16T09:00:20.387Z,14456.00
2018-06-16T09:01:20.428Z,14332.00
2018-06-16T09:02:20.470Z,14324.00
2018-06-16T09:03:20.510Z,14388.00
2018-06-16T09:04:20.553Z,14456.00
2018-06-16T09:05:20.594Z,14472.00
2018-06-16T09:06:20.635Z,14344.00
2018-06-16T09:07:20.676Z,14388.00
2018-06-16T09:08:20.719Z,14488.00
2018-06-16T09:09:20.759Z,14616.00
2018-06-16T09:10:20.803Z,14572.00
2018-06-16T09:11:20.841Z,14492.00
2018-06-16T09:12:20.882Z,14304.00
2018-06-16T09:13:20.925Z,14156.00
2018-06-16T09:14:20.967Z,14052.00
2018-06-16T09:15:21.007Z,14248.00
2018-06-16T09:16:21.049Z,14560.00
2018-06-16T09:17:21.164Z,14936.00
2018-06-16T09:18:21.132Z,15108.00
2018-06-16T09:19:21.173Z,15388.00
2018-06-16T09:20:21.216Z,15540.00
2018-06-16T09:21:21.257Z,15508.00
2018-06-16T09:22:21.299Z,15628.00
2018-06-16T09:23:21.341Z,15568.00
2018-06-16T09:24:21.383Z,15520.00
2018-06-16T09:25:21.425Z,15796.00
2018-06-16T09:26:21.468Z,15832.00
2018-06-16T09:27:21.508Z,15816.00
2018-06-16T09:28:21.553Z,15872.00
2018-06-16T09:29:21.592Z,16060.00
2018-06-16T09:30:21.858Z,16504.00
2018-06-16T09:31:21.681Z,16580.00
2018-06-16T09:32:21.719Z,16540.00
2018-06-16T09:33:21.760Z,16464.00
2018-06-16T09:34:21.802Z,16636.00
2018-06-16T09:35:21.845Z,16584.00
2018-06-16T09:36:21.908Z,16744.00
2018-06-16T09:37:22.131Z,16704.00
2018-06-16T09:38:21.971Z,16900.00
2018-06-16T09:39:22.013Z,17440.00
2018-06-16T09:40:22.057Z,17728.00
2018-06-16T09:41:22.301Z,17760.00
2018-06-16T09:42:22.190Z,17760.00
2018-06-16T09:43:22.184Z,17440.00
2018-06-16T09:44:22.315Z,17632.00
2018-06-16T09:45:22.268Z,17568.00
2018-06-16T09:46:22.312Z,17344.00
2018-06-16T09:47:22.354Z,16648.00
2018-06-16T09:48:22.397Z,17016.00
2018-06-16T09:49:22.439Z,16196.00
2018-06-16T09:50:22.481Z,16596.00
2018-06-16T09:51:22.525Z,16684.00
2018-06-16T09:52:22.567Z,18368.00
2018-06-16T09:53:22.610Z,19200.00
2018-06-16T09:54:22.653Z,19008.00
2018-06-16T09:55:22.693Z,18976.00
2018-06-16T09:56:22.737Z,18112.00
2018-06-16T09:57:22.780Z,18240.00
2018-06-16T09:58:22.873Z,18240.00
2018-06-16T09:59:22.864Z,18144.00
2018-06-16T10:00:22.908Z,18784.00
2018-06-16T10:01:22.952Z,18880.00
2018-06-16T10:02:22.993Z,19392.00
2018-06-16T10:03:23.062Z,19392.00
2018-06-16T10:04:23.079Z,18048.00
2018-06-16T10:05:23.122Z,18272.00
2018-06-16T10:06:23.167Z,17856.00
2018-06-16T10:07:23.208Z,17952.00
2018-06-16T10:08:23.251Z,18080.00
2018-06-16T10:09:23.392Z,18336.00
2018-06-16T10:10:23.338Z,18112.00
2018-06-16T10:11:23.383Z,18240.00
2018-06-16T10:12:23.424Z,18240.00
2018-06-16T10:13:23.468Z,19232.00
2018-06-16T10:14:23.511Z,19552.00
2018-06-16T10:15:23.554Z,20288.00
2018-06-16T10:16:23.598Z,20896.00
2018-06-16T10:17:23.641Z,21440.00
2018-06-16T10:18:23.685Z,21824.00
2018-06-16T10:19:23.728Z,21792.00
2018-06-16T10:20:23.771Z,22784.00
2018-06-16T10:21:23.823Z,23296.00
2018-06-16T10:22:23.859Z,23072.00
2018-06-16T10:23:23.902Z,24064.00
2018-06-16T10:24:23.945Z,24352.00
2018-06-16T10:25:23.989Z,24672.00
2018-06-16T10:26:24.034Z,25536.00
2018-06-16T10:27:24.077Z,26048.00
2018-06-16T10:28:24.121Z,26816.00
2018-06-16T10:29:24.166Z,27040.00
2018-06-16T10:30:24.214Z,27168.00
2018-06-16T10:31:24.253Z,27680.00
2018-06-16T10:32:24.297Z,27008.00
2018-06-16T10:33:24.342Z,27136.00
2018-06-16T10:34:24.385Z,27840.00
2018-06-16T10:35:24.430Z,28352.00
2018-06-16T10:36:24.483Z,29536.00
2018-06-16T10:37:24.519Z,29664.00
2018-06-16T10:38:24.565Z,29696.00
2018-06-16T10:39:24.607Z,29760.00
2018-06-16T10:40:24.652Z,29856.00
2018-06-16T10:41:25.506Z,29760.00
2018-06-16T10:42:24.742Z,30496.00
2018-06-16T10:43:24.785Z,32032.00
2018-06-16T10:44:24.831Z,38944.00
2018-06-16T10:45:24.876Z,49536.00
2018-06-16T10:46:24.920Z,55648.00
2018-06-16T10:47:24.988Z,70656.00
2018-06-16T10:48:25.012Z,88608.00
2018-06-16T10:49:25.057Z,82208.00
2018-06-16T10:50:25.107Z,77888.00
2018-06-16T10:51:25.148Z,78976.00
2018-06-16T10:52:25.194Z,87040.00
2018-06-16T10:53:25.242Z,74176.00
2018-06-16T10:54:25.289Z,79040.00
2018-06-16T10:55:25.380Z,73888.00
2018-06-16T10:56:25.383Z,71136.00
2018-06-16T10:57:25.432Z,80256.00
2018-06-16T10:58:28.102Z,75968.00
2018-06-16T10:59:25.544Z,71200.00
2018-06-16T11:00:25.624Z,76480.00
2018-06-16T11:01:25.628Z,78144.00
2018-06-16T11:02:25.674Z,80832.00
2018-06-16T11:03:25.722Z,81280.00
2018-06-16T11:04:25.773Z,79584.00
2018-06-16T11:05:25.822Z,82496.00
2018-06-16T11:06:25.872Z,83744.00
2018-06-16T11:07:28.544Z,84288.00
2018-06-16T11:08:25.971Z,83008.00
2018-06-16T11:09:26.021Z,83936.00
2018-06-16T11:10:26.071Z,77216.00
2018-06-16T11:12:26.173Z,65536.00
2018-06-16T11:13:26.225Z,62848.00
2018-06-16T11:14:26.275Z,67296.00
2018-06-16T11:15:26.324Z,67680.00
2018-06-16T11:16:26.375Z,68736.00
2018-06-16T11:17:26.427Z,69376.00
2018-06-16T11:18:26.478Z,68864.00
2018-06-16T11:19:26.528Z,66336.00
2018-06-16T11:20:26.583Z,68640.00
2018-06-16T11:21:26.634Z,63584.00
2018-06-16T11:22:26.682Z,66656.00
2018-06-16T11:23:26.733Z,64832.00
2018-06-16T11:24:26.784Z,63136.00
2018-06-16T11:25:26.836Z,63648.00
2018-06-16T11:26:26.885Z,68704.00
2018-06-16T11:27:26.937Z,66176.00
2018-06-16T11:28:26.987Z,70656.00
2018-06-16T11:29:27.039Z,70112.00
2018-06-16T11:30:27.134Z,68640.00
2018-06-16T11:31:27.140Z,62784.00
2018-06-16T11:32:27.190Z,59904.00
2018-06-16T11:33:27.241Z,52864.00
2018-06-16T11:34:27.292Z,47808.00
2018-06-16T11:35:27.341Z,43840.00
2018-06-16T11:36:27.394Z,42240.00
2018-06-16T11:37:27.444Z,43712.00
2018-06-16T11:38:27.494Z,47072.00
2018-06-16T11:39:27.543Z,52512.00
2018-06-16T11:40:27.592Z,53792.00
2018-06-16T11:41:27.643Z,58720.00
2018-06-16T11:42:27.692Z,63296.00
2018-06-16T11:43:27.740Z,72128.00
2018-06-16T11:44:27.792Z,68416.00
2018-06-16T11:45:27.842Z,64576.00
2018-06-16T11:46:27.892Z,65472.00
2018-06-16T11:47:27.940Z,69536.00
2018-06-16T11:48:27.990Z,61216.00
2018-06-16T11:49:28.039Z,56160.00
2018-06-16T11:50:28.091Z,68000.00
2018-06-16T11:51:28.138Z,64224.00
2018-06-16T11:52:28.189Z,55584.00
2018-06-16T11:53:28.239Z,61088.00
2018-06-16T11:54:28.289Z,70144.00
2018-06-16T11:55:28.338Z,76992.00
2018-06-16T11:56:28.388Z,81760.00
2018-06-16T11:57:28.438Z,84416.00
2018-06-16T11:58:28.488Z,91808.00
2018-06-16T11:59:28.538Z,78592.00
2018-06-16T12:00:28.588Z,70592.00
2018-06-16T12:01:28.637Z,68896.00
2018-06-16T12:02:28.689Z,75200.00
2018-06-16T12:03:28.741Z,83392.00
2018-06-16T12:04:28.789Z,77248.00
2018-06-16T12:05:28.841Z,83744.00
2018-06-16T12:06:28.891Z,83040.00
2018-06-16T12:07:28.940Z,79904.00
2018-06-16T12:08:28.991Z,77792.00
2018-06-16T12:09:29.044Z,69824.00
2018-06-16T12:10:29.095Z,71552.00
2018-06-16T12:11:29.145Z,73184.00
2018-06-16T12:12:29.197Z,77888.00
2018-06-16T12:13:29.251Z,74592.00
2018-06-16T12:14:29.303Z,83488.00
2018-06-16T12:15:29.353Z,84480.00
2018-06-16T12:16:29.400Z,81920.00
2018-06-16T12:17:29.453Z,83840.00
2018-06-16T12:18:29.528Z,86496.00
2018-06-16T12:19:29.555Z,81792.00
2018-06-16T12:20:29.606Z,80544.00
2018-06-16T12:21:29.659Z,78656.00
2018-06-16T12:22:29.716Z,79072.00